Relevés stations proches


LFBH - La Rochelle, Charente Maritime
Mise à jour: 24/04/2018 14:00
Clair
Clair
 Wind from NO
Vent: NO 13 km/h
Température: 16°C
Point de rosée: 10°C
Humidité: 68%
Baromètre: 1019 hPa
Ciel: Clair
Visibilité: Supérieure à 10 km
2018/04/24 14:00 LFBH 241400Z AUTO 32007KT 280V010 CAVOK 16/10 Q1019 NOSIG
LFBC - Cognac, Charente
Mise à jour: 24/04/2018 14:00
Clair
Clair
 Wind from varies
Vent: varies 6 km/h
Température: 25°C
Point de rosée: 13°C
Humidité: 47%
Baromètre: 1017 hPa
Ciel: Clair
Visibilité: Supérieure à 10 km
2018/04/24 14:00 LFBC 241400Z AUTO VRB03KT CAVOK 25/13 Q1017 NOSIG
 
LFBU - Angoulème, Charente
Mise à jour: 24/04/2018 14:00
Nuageux
Nuageux
 Wind from O
Vent: O 9 km/h
Température: 20°C
Point de rosée: 13°C
Humidité: 64%
Baromètre: 1019 hPa
Ciel: Nuageux
Visibilité: 10 km
Détails plafond nuageux: Nuageux 1067 m
2018/04/24 14:00 LFBU 241400Z AUTO 28005KT 240V310 9999 BKN035 20/13 Q1019 NOSIG
LFRI - La Roche sur Yon, Vendée
Mise à jour: 24/04/2018 14:00
Clair
Clair
 Wind from O
Vent: O 7 km/h
Température: 18°C
Point de rosée: 10°C
Humidité: 60%
Baromètre: 1019 hPa
Ciel: Clair
Visibilité: Supérieure à 10 km
2018/04/24 14:00 LFRI 241400Z AUTO 26004KT 210V310 CAVOK 18/10 Q1019 NOSIG
 
LFBI - Poitiers, Vienne
Mise à jour: 24/04/2018 14:00
Nuageux
Nuageux
 Wind from SSO
Vent: SSO 13 km/h
Température: 20°C
Point de rosée: 12°C
Humidité: 60%
Baromètre: 1019 hPa
Ciel: Nuageux
Visibilité: 10 km
Détails plafond nuageux: Nuageux 945 m
2018/04/24 14:00 LFBI 241400Z AUTO 20007KT 150V250 9999 BKN031 20/12 Q1019 NOSIG
LFRS - Nantes, Loire Atlantique
Mise à jour: 24/04/2018 14:00
Clair
Clair
 Wind from O
Vent: O 17 km/h
Température: 17°C
Point de rosée: 11°C
Humidité: 68%
Baromètre: 1019 hPa
Ciel: Clair
Visibilité: Supérieure à 10 km
2018/04/24 14:00 LFRS 241400Z AUTO 28009KT 200V300 CAVOK 17/11 Q1019 NOSIG
 
LFBD - Bordeaux, Gironde
Mise à jour: 24/04/2018 14:00
Peu nuageux
Peu nuageux
 Wind from varies
Vent: varies 4 km/h
Température: 23°C
Point de rosée: 14°C
Humidité: 57%
Baromètre: 1018 hPa
Ciel: Peu nuageux
Visibilité: 10 km
Détails plafond nuageux: Peu nuageux 1219 m
2018/04/24 14:00 LFBD 241400Z AUTO VRB02KT 9999 FEW040 23/14 Q1018 NOSIG
LFBL - Limoges, Haute Vienne
Mise à jour: 24/04/2018 14:00
Couvert
Couvert
 Wind from SO
Vent: SO 15 km/h
Température: 20°C
Point de rosée: 13°C
Humidité: 64%
Baromètre: 1019 hPa
Ciel: Couvert
Visibilité: 10 km
Détails plafond nuageux: Couvert 884 m
2018/04/24 14:00 LFBL 241400Z AUTO 22008KT 9999 OVC029 20/13 Q1019 NOSIG